createdAt,value
2019-06-07T00:00:39.589Z,99.90
2019-06-07T00:03:04.458Z,99.90
2019-06-07T00:05:34.531Z,99.90
2019-06-07T00:08:11.065Z,99.90
2019-06-07T00:10:37.262Z,99.90
2019-06-07T00:13:09.540Z,99.90
2019-06-07T00:15:39.420Z,99.90
2019-06-07T00:18:11.133Z,99.90
2019-06-07T00:20:41.438Z,99.90
2019-06-07T00:23:14.751Z,99.90
2019-06-07T00:25:43.389Z,99.90
2019-06-07T00:28:17.034Z,99.90
2019-06-07T00:30:51.921Z,99.90
2019-06-07T00:33:24.079Z,99.90
2019-06-07T00:35:52.052Z,99.90
2019-06-07T00:38:22.218Z,99.90
2019-06-07T00:40:52.363Z,99.90
2019-06-07T00:43:27.803Z,99.90
2019-06-07T00:45:54.280Z,99.90
2019-06-07T00:48:30.844Z,99.90
2019-06-07T00:50:56.315Z,99.90
2019-06-07T00:53:31.761Z,99.90
2019-06-07T00:55:58.141Z,99.90
2019-06-07T00:58:29.566Z,99.90
2019-06-07T01:01:00.004Z,99.90
2019-06-07T01:03:30.128Z,99.90
2019-06-07T01:06:00.209Z,99.90
2019-06-07T01:08:30.441Z,99.90
2019-06-07T01:11:00.729Z,99.90
2019-06-07T01:13:30.878Z,99.90
2019-06-07T01:16:01.137Z,99.90
2019-06-07T01:18:39.009Z,99.90
2019-06-07T01:21:03.104Z,99.90
2019-06-07T01:24:07.945Z,99.90
2019-06-07T01:26:05.118Z,99.90
2019-06-07T01:28:35.181Z,99.90
2019-06-07T01:31:05.201Z,99.90
2019-06-07T01:33:50.183Z,99.90
2019-06-07T01:36:07.266Z,99.90
2019-06-07T01:38:37.722Z,99.90
2019-06-07T01:41:08.285Z,99.90
2019-06-07T01:43:38.519Z,99.90
2019-06-07T01:46:08.577Z,99.90
2019-06-07T01:48:48.934Z,99.90
2019-06-07T01:51:10.418Z,99.90
2019-06-07T01:53:40.502Z,99.90
2019-06-07T01:56:10.550Z,99.90
2019-06-07T01:58:40.746Z,99.90
2019-06-07T02:01:10.984Z,99.90
2019-06-07T02:03:41.100Z,99.90
2019-06-07T02:06:11.210Z,99.90
2019-06-07T02:08:41.325Z,99.90
2019-06-07T02:11:11.399Z,99.90
2019-06-07T02:13:41.477Z,99.90
2019-06-07T02:16:11.712Z,99.90
2019-06-07T02:19:00.641Z,99.90
2019-06-07T02:21:13.658Z,99.90
2019-06-07T02:23:43.820Z,99.90
2019-06-07T02:26:13.924Z,99.90
2019-06-07T02:28:45.636Z,99.90
2019-06-07T02:31:15.884Z,99.90
2019-06-07T02:33:46.140Z,99.90
2019-06-07T02:36:18.169Z,99.90
2019-06-07T02:38:48.481Z,99.90
2019-06-07T02:41:18.525Z,99.90
2019-06-07T02:43:48.775Z,99.90
2019-06-07T02:46:34.633Z,99.90
2019-06-07T02:48:57.381Z,99.90
2019-06-07T02:51:33.530Z,99.90
2019-06-07T02:53:59.319Z,99.90
2019-06-07T02:56:52.457Z,99.90
2019-06-07T02:59:01.280Z,99.90
2019-06-07T03:01:38.564Z,99.90
2019-06-07T03:04:03.913Z,99.90
2019-06-07T03:06:39.520Z,99.90
2019-06-07T03:09:09.330Z,99.90
2019-06-07T03:11:42.735Z,99.90
2019-06-07T03:14:13.736Z,99.90
2019-06-07T03:16:52.496Z,99.90
2019-06-07T03:19:37.597Z,99.90
2019-06-07T03:22:06.447Z,99.90
2019-06-07T03:24:41.192Z,99.90
2019-06-07T03:27:34.606Z,99.90
2019-06-07T03:29:44.806Z,99.90
2019-06-07T03:32:14.952Z,99.90
2019-06-07T03:34:45.098Z,99.90
2019-06-07T03:37:15.125Z,99.90
2019-06-07T03:39:45.298Z,99.90
2019-06-07T03:42:15.345Z,99.90
2019-06-07T03:44:45.544Z,99.90
2019-06-07T03:47:15.584Z,99.90
2019-06-07T03:49:47.193Z,99.90
2019-06-07T03:52:17.328Z,99.90
2019-06-07T03:54:47.430Z,99.90
2019-06-07T03:57:17.553Z,99.90
2019-06-07T03:59:47.602Z,99.90
2019-06-07T04:02:17.650Z,99.90
2019-06-07T04:04:47.729Z,99.90
2019-06-07T04:07:17.875Z,99.90
2019-06-07T04:09:48.100Z,99.90
2019-06-07T04:12:18.512Z,99.90
2019-06-07T04:14:48.860Z,99.90
2019-06-07T04:17:32.116Z,99.90
2019-06-07T04:20:03.140Z,99.90
2019-06-07T04:22:38.836Z,99.90
2019-06-07T04:25:09.462Z,99.90
2019-06-07T04:27:41.078Z,99.90
2019-06-07T04:30:13.571Z,99.90
2019-06-07T04:32:45.003Z,99.90
2019-06-07T04:35:15.523Z,99.90
2019-06-07T04:37:47.918Z,99.90
2019-06-07T04:40:17.958Z,99.90
2019-06-07T04:42:48.490Z,99.90
2019-06-07T04:45:33.707Z,99.90
2019-06-07T04:47:51.230Z,99.90
2019-06-07T04:50:21.272Z,99.90
2019-06-07T04:52:51.453Z,99.90
2019-06-07T04:55:22.004Z,99.90
2019-06-07T04:57:52.090Z,99.90
2019-06-07T05:03:02.270Z,99.90
2019-06-07T05:05:34.357Z,99.90
2019-06-07T05:08:07.606Z,99.90
2019-06-07T05:10:38.747Z,99.90
2019-06-07T05:13:08.391Z,99.90
2019-06-07T05:15:40.217Z,99.90
2019-06-07T05:18:10.674Z,99.90
2019-06-07T05:20:44.309Z,99.90
2019-06-07T05:23:59.561Z,99.90
2019-06-07T05:25:44.997Z,99.90
2019-06-07T05:28:15.216Z,99.90
2019-06-07T05:31:05.350Z,99.90
2019-06-07T05:33:18.051Z,99.90
2019-06-07T05:35:48.216Z,99.90
2019-06-07T05:38:18.393Z,99.90
2019-06-07T05:40:49.134Z,99.90
2019-06-07T05:43:24.760Z,99.90
2019-06-07T05:45:54.858Z,99.90
2019-06-07T05:48:25.027Z,99.90
2019-06-07T05:50:57.487Z,99.90
2019-06-07T05:53:27.145Z,99.90
2019-06-07T05:55:57.309Z,99.90
2019-06-07T05:58:41.907Z,99.90
2019-06-07T06:01:42.019Z,99.90
2019-06-07T06:03:46.439Z,99.90
2019-06-07T06:06:15.359Z,99.90
2019-06-07T06:08:47.919Z,99.90
2019-06-07T06:11:17.483Z,99.90
2019-06-07T06:14:04.946Z,99.90
2019-06-07T06:16:21.181Z,99.90
2019-06-07T06:18:51.442Z,99.90
2019-06-07T06:21:21.712Z,99.90
2019-06-07T06:23:53.894Z,99.90
2019-06-07T06:26:23.850Z,99.90
2019-06-07T06:28:54.108Z,99.90
2019-06-07T06:31:24.701Z,99.90
2019-06-07T06:33:55.112Z,99.90
2019-06-07T06:36:25.331Z,99.90
2019-06-07T06:38:55.617Z,99.90
2019-06-07T06:41:26.103Z,99.90
2019-06-07T06:43:56.376Z,99.90
2019-06-07T06:46:39.111Z,99.90
2019-06-07T06:48:58.870Z,99.90
2019-06-07T06:51:29.395Z,99.90
2019-06-07T06:53:59.535Z,99.90
2019-06-07T06:56:29.689Z,99.90
2019-06-07T06:59:35.349Z,99.90
2019-06-07T07:01:52.596Z,99.90
2019-06-07T07:04:23.150Z,99.90
2019-06-07T07:06:55.277Z,99.90
2019-06-07T07:09:26.299Z,99.90
2019-06-07T07:12:10.957Z,99.90
2019-06-07T07:14:28.136Z,99.90
2019-06-07T07:16:58.342Z,99.90
2019-06-07T07:19:28.539Z,99.90
2019-06-07T07:21:58.661Z,99.90
2019-06-07T07:24:29.154Z,99.90
2019-06-07T07:26:59.360Z,99.90
2019-06-07T07:29:29.614Z,99.90
2019-06-07T07:31:59.733Z,99.90
2019-06-07T07:34:35.323Z,99.90
2019-06-07T07:37:01.683Z,99.90
2019-06-07T07:39:31.775Z,99.90
2019-06-07T07:42:20.030Z,99.90
2019-06-07T07:44:33.763Z,99.90
2019-06-07T07:47:04.005Z,99.90
2019-06-07T07:49:34.086Z,99.90
2019-06-07T07:52:04.225Z,99.90
2019-06-07T07:54:34.349Z,99.90
2019-06-07T07:57:04.420Z,99.90
2019-06-07T07:59:44.056Z,99.90
2019-06-07T08:02:06.898Z,99.90
2019-06-07T08:05:13.806Z,99.90
2019-06-07T08:07:08.784Z,99.90
2019-06-07T08:09:39.035Z,99.90
2019-06-07T08:12:09.160Z,99.90
2019-06-07T08:14:39.484Z,99.90
2019-06-07T08:17:09.697Z,99.90
2019-06-07T08:19:39.809Z,99.90
2019-06-07T08:22:10.019Z,99.90
2019-06-07T08:24:40.458Z,99.90
2019-06-07T08:27:25.720Z,99.90
2019-06-07T08:29:45.436Z,99.90
2019-06-07T08:32:14.273Z,99.90
2019-06-07T08:34:44.387Z,99.90
2019-06-07T08:37:14.885Z,99.90
2019-06-07T08:39:44.936Z,99.90
2019-06-07T08:42:21.446Z,99.90
2019-06-07T08:44:47.008Z,99.90
2019-06-07T08:47:21.016Z,99.90
2019-06-07T08:49:50.962Z,99.90
2019-06-07T08:52:21.159Z,99.90
2019-06-07T08:54:52.397Z,99.90
2019-06-07T08:57:24.286Z,99.90
2019-06-07T08:59:56.597Z,99.90
2019-06-07T09:02:26.263Z,99.90
2019-06-07T09:05:01.811Z,99.90
2019-06-07T09:07:34.047Z,99.90
2019-06-07T09:10:12.844Z,99.90
2019-06-07T09:12:39.312Z,99.90
2019-06-07T09:15:20.151Z,99.90
2019-06-07T09:18:29.350Z,99.90
2019-06-07T09:20:35.096Z,99.90
2019-06-07T09:22:46.768Z,99.90
2019-06-07T09:25:20.879Z,99.90
2019-06-07T09:27:49.571Z,99.90
2019-06-07T09:30:44.090Z,99.90
2019-06-07T09:33:14.575Z,99.90
2019-06-07T09:35:45.048Z,99.90
2019-06-07T09:38:25.586Z,99.90
2019-06-07T09:40:48.544Z,99.90
2019-06-07T09:43:59.815Z,99.90
2019-06-07T09:45:50.530Z,99.90
2019-06-07T09:49:08.471Z,99.90
2019-06-07T09:50:52.767Z,99.90
2019-06-07T09:53:23.504Z,99.90
2019-06-07T09:55:53.834Z,99.90
2019-06-07T09:58:51.226Z,99.90
2019-06-07T10:00:59.271Z,99.90
2019-06-07T10:03:27.723Z,99.90
2019-06-07T10:05:59.721Z,99.90
2019-06-07T10:11:04.617Z,99.90
2019-06-07T10:13:34.942Z,99.90
2019-06-07T10:16:05.194Z,99.90
2019-06-07T10:18:35.376Z,99.90
2019-06-07T10:21:05.721Z,99.90
2019-06-07T10:23:36.056Z,99.90
2019-06-07T10:26:06.278Z,99.90
2019-06-07T10:28:38.441Z,99.90
2019-06-07T10:31:09.934Z,99.90
2019-06-07T10:33:41.890Z,99.90
2019-06-07T10:36:11.954Z,99.90
2019-06-07T10:38:42.288Z,99.90
2019-06-07T10:41:12.352Z,99.90
2019-06-07T10:43:42.491Z,99.90
2019-06-07T10:46:12.684Z,99.90
2019-06-07T10:48:42.917Z,99.90
2019-06-07T10:51:14.763Z,99.90
2019-06-07T10:53:44.873Z,99.90
2019-06-07T10:56:16.097Z,99.90
2019-06-07T10:58:46.198Z,99.90
2019-06-07T11:01:16.407Z,99.90
2019-06-07T11:03:49.470Z,99.90
2019-06-07T11:06:19.772Z,98.80
2019-06-07T11:08:50.874Z,97.60
2019-06-07T11:11:21.074Z,96.40
2019-06-07T11:13:52.559Z,96.80
2019-06-07T11:16:22.924Z,97.10
2019-06-07T11:18:53.387Z,97.30
2019-06-07T11:21:23.613Z,97.20
2019-06-07T11:23:53.810Z,96.90
2019-06-07T11:26:24.127Z,97.80
2019-06-07T11:28:55.653Z,96.90
2019-06-07T11:31:26.194Z,96.40
2019-06-07T11:33:57.363Z,96.00
2019-06-07T11:36:29.482Z,95.60
2019-06-07T11:38:59.711Z,95.60
2019-06-07T11:41:29.858Z,94.80
2019-06-07T11:43:59.951Z,95.10
2019-06-07T11:46:30.204Z,95.30
2019-06-07T11:49:00.507Z,95.60
2019-06-07T11:51:30.892Z,95.50
2019-06-07T11:54:01.497Z,96.50
2019-06-07T11:56:33.521Z,96.60
2019-06-07T11:59:03.894Z,97.10
2019-06-07T12:01:37.215Z,97.00
2019-06-07T12:04:07.340Z,97.30
2019-06-07T12:06:37.695Z,97.30
2019-06-07T12:09:10.519Z,96.70
2019-06-07T12:11:40.816Z,96.70
2019-06-07T12:14:11.031Z,95.90
2019-06-07T12:16:41.379Z,96.30
2019-06-07T12:19:11.927Z,94.80
2019-06-07T12:21:42.212Z,95.80
2019-06-07T12:24:12.431Z,96.50
2019-06-07T12:26:42.729Z,96.70
2019-06-07T12:29:14.804Z,97.20
2019-06-07T12:31:45.073Z,97.70
2019-06-07T12:34:15.604Z,98.30
2019-06-07T12:36:46.127Z,98.30
2019-06-07T12:39:19.924Z,97.40
2019-06-07T12:41:50.177Z,97.60
2019-06-07T12:44:20.726Z,97.30
2019-06-07T12:47:00.399Z,97.70
2019-06-07T12:49:31.415Z,97.50
2019-06-07T12:52:01.553Z,98.40
2019-06-07T12:54:31.737Z,99.00
2019-06-07T12:57:01.862Z,99.10
2019-06-07T12:59:32.048Z,99.80
2019-06-07T13:02:03.025Z,99.90
2019-06-07T13:04:33.187Z,99.90
2019-06-07T13:07:05.635Z,99.90
2019-06-07T13:09:36.282Z,99.90
2019-06-07T13:12:06.719Z,99.90
2019-06-07T13:14:36.963Z,99.90
2019-06-07T13:17:07.640Z,99.90
2019-06-07T13:19:37.805Z,99.90
2019-06-07T13:22:08.691Z,99.90
2019-06-07T13:24:39.044Z,99.90
2019-06-07T13:27:09.236Z,99.90
2019-06-07T13:29:39.408Z,99.90
2019-06-07T13:32:09.639Z,99.90
2019-06-07T13:34:39.795Z,99.90
2019-06-07T13:37:09.844Z,99.90
2019-06-07T13:39:40.046Z,99.90
2019-06-07T13:42:10.172Z,99.90
2019-06-07T13:44:40.242Z,99.90
2019-06-07T13:47:10.750Z,99.90
2019-06-07T13:49:40.975Z,99.90
2019-06-07T13:52:11.219Z,99.90
2019-06-07T13:54:41.502Z,99.90
2019-06-07T13:57:11.991Z,99.90
2019-06-07T13:59:42.333Z,99.90
2019-06-07T14:02:12.706Z,99.90
2019-06-07T14:04:43.010Z,99.90
2019-06-07T14:07:13.350Z,99.90
2019-06-07T14:09:43.517Z,99.90
2019-06-07T14:12:13.590Z,99.90
2019-06-07T14:14:45.690Z,99.90
2019-06-07T14:17:15.948Z,99.90
2019-06-07T14:19:46.080Z,99.90
2019-06-07T14:22:16.194Z,99.90
2019-06-07T14:24:46.517Z,99.90
2019-06-07T14:27:16.630Z,99.90
2019-06-07T14:29:46.886Z,99.90
2019-06-07T14:32:17.057Z,99.90
2019-06-07T14:34:47.310Z,99.90
2019-06-07T14:37:17.417Z,99.90
2019-06-07T14:39:49.276Z,99.90
2019-06-07T14:42:19.793Z,99.90
2019-06-07T14:44:50.226Z,99.90
2019-06-07T14:47:20.347Z,99.90
2019-06-07T14:49:51.003Z,99.90
2019-06-07T14:52:21.390Z,99.90
2019-06-07T14:54:51.792Z,99.90
2019-06-07T14:57:22.029Z,99.90
2019-06-07T14:59:53.946Z,99.90
2019-06-07T15:02:24.321Z,99.90
2019-06-07T15:04:54.897Z,99.90
2019-06-07T15:07:26.591Z,99.90
2019-06-07T15:09:58.075Z,99.90
2019-06-07T15:12:29.343Z,99.90
2019-06-07T15:14:59.620Z,99.90
2019-06-07T15:17:31.242Z,99.90
2019-06-07T15:20:02.778Z,99.90
2019-06-07T15:22:34.086Z,99.90
2019-06-07T15:25:05.447Z,99.90
2019-06-07T15:27:37.471Z,99.90
2019-06-07T15:30:10.320Z,99.90
2019-06-07T15:32:40.827Z,99.90
2019-06-07T15:35:12.163Z,99.90
2019-06-07T15:37:42.902Z,99.90
2019-06-07T15:40:15.204Z,99.90
2019-06-07T15:42:52.517Z,99.90
2019-06-07T15:45:18.416Z,99.90
2019-06-07T15:47:48.626Z,99.90
2019-06-07T15:50:19.641Z,99.90
2019-06-07T15:52:49.714Z,99.90
2019-06-07T15:55:20.275Z,99.90
2019-06-07T15:57:50.616Z,99.90
2019-06-07T16:00:21.546Z,99.90
2019-06-07T16:02:54.573Z,99.90
2019-06-07T16:05:26.675Z,99.90
2019-06-07T16:07:56.802Z,99.90
2019-06-07T16:10:27.081Z,99.90
2019-06-07T16:13:00.734Z,99.90
2019-06-07T16:15:29.203Z,99.90
2019-06-07T16:18:01.768Z,99.90
2019-06-07T16:20:33.206Z,99.90
2019-06-07T16:23:05.126Z,99.90
2019-06-07T16:25:35.787Z,99.90
2019-06-07T16:28:06.425Z,99.90
2019-06-07T16:30:36.767Z,99.90
2019-06-07T16:33:07.062Z,99.90
2019-06-07T16:35:39.024Z,99.90
2019-06-07T16:38:09.185Z,99.90
2019-06-07T16:40:40.342Z,99.90
2019-06-07T16:43:17.971Z,99.90
2019-06-07T16:45:45.491Z,99.90
2019-06-07T16:48:15.822Z,99.90
2019-06-07T16:50:46.814Z,99.90
2019-06-07T16:53:16.920Z,99.90
2019-06-07T16:55:47.115Z,99.90
2019-06-07T16:58:17.485Z,99.90
2019-06-07T17:00:48.574Z,99.90
2019-06-07T17:03:18.887Z,99.90
2019-06-07T17:05:50.566Z,99.90
2019-06-07T17:08:21.105Z,99.90
2019-06-07T17:10:51.660Z,99.90
2019-06-07T17:13:33.045Z,99.90
2019-06-07T17:15:56.095Z,99.90
2019-06-07T17:18:26.531Z,99.90
2019-06-07T17:20:56.929Z,99.50
2019-06-07T17:23:30.068Z,98.00
2019-06-07T17:26:00.313Z,96.80
2019-06-07T17:28:30.670Z,96.80
2019-06-07T17:31:00.924Z,95.80
2019-06-07T17:33:31.071Z,95.70
2019-06-07T17:36:01.255Z,94.00
2019-06-07T17:38:31.427Z,94.50
2019-06-07T17:41:01.518Z,94.80
2019-06-07T17:43:31.675Z,95.20
2019-06-07T17:46:01.889Z,96.20
2019-06-07T17:48:32.133Z,97.10
2019-06-07T17:51:02.330Z,97.20
2019-06-07T17:53:32.679Z,96.40
2019-06-07T17:56:03.003Z,96.60
2019-06-07T17:58:33.169Z,96.40
2019-06-07T18:01:03.327Z,97.50
2019-06-07T18:03:33.640Z,98.60
2019-06-07T18:06:06.967Z,99.90
2019-06-07T18:08:37.196Z,99.90
2019-06-07T18:11:07.341Z,99.90
2019-06-07T18:13:37.796Z,99.90
2019-06-07T18:16:08.242Z,99.90
2019-06-07T18:18:39.272Z,99.90
2019-06-07T18:21:10.953Z,99.90
2019-06-07T18:23:41.114Z,99.90
2019-06-07T18:26:13.292Z,99.90
2019-06-07T18:28:43.595Z,99.90
2019-06-07T18:31:17.735Z,99.90
2019-06-07T18:33:48.771Z,99.90
2019-06-07T18:36:18.904Z,99.90
2019-06-07T18:38:49.229Z,99.90
2019-06-07T18:41:19.439Z,99.90
2019-06-07T18:43:49.636Z,99.90
2019-06-07T18:46:20.205Z,99.90
2019-06-07T18:48:50.652Z,99.90
2019-06-07T18:51:21.118Z,99.90
2019-06-07T18:53:51.656Z,99.90
2019-06-07T18:56:22.531Z,99.90
2019-06-07T18:58:55.549Z,99.90
2019-06-07T19:01:29.387Z,99.90
2019-06-07T19:03:59.649Z,99.90
2019-06-07T19:06:29.842Z,99.90
2019-06-07T19:09:01.047Z,99.90
2019-06-07T19:11:31.245Z,99.90
2019-06-07T19:14:01.391Z,99.90
2019-06-07T19:16:31.620Z,99.90
2019-06-07T19:19:03.661Z,99.90
2019-06-07T19:21:33.938Z,99.90
2019-06-07T19:24:04.078Z,99.90
2019-06-07T19:26:34.515Z,99.90
2019-06-07T19:29:04.830Z,99.90
2019-06-07T19:31:35.074Z,99.90
2019-06-07T19:34:05.968Z,99.90
2019-06-07T19:36:48.255Z,99.90
2019-06-07T19:39:08.192Z,99.90
2019-06-07T19:41:38.347Z,99.90
2019-06-07T19:44:09.040Z,99.90
2019-06-07T19:46:39.257Z,99.90
2019-06-07T19:49:09.459Z,99.90
2019-06-07T19:51:39.748Z,99.90
2019-06-07T19:54:09.828Z,99.90
2019-06-07T19:56:39.939Z,99.90
2019-06-07T19:59:10.195Z,99.90
2019-06-07T20:01:40.402Z,99.90
2019-06-07T20:04:10.542Z,99.90
2019-06-07T20:06:40.759Z,99.90
2019-06-07T20:09:10.906Z,99.90
2019-06-07T20:11:41.086Z,99.90
2019-06-07T20:14:26.101Z,99.90
2019-06-07T20:16:59.546Z,99.90
2019-06-07T20:19:29.907Z,99.90
2019-06-07T20:22:01.057Z,99.90
2019-06-07T20:24:31.352Z,99.90
2019-06-07T20:27:02.303Z,99.90
2019-06-07T20:29:32.882Z,99.90
2019-06-07T20:32:04.422Z,99.90
2019-06-07T20:34:34.696Z,99.90
2019-06-07T20:37:05.972Z,99.90
2019-06-07T20:39:37.375Z,99.90
2019-06-07T20:42:07.903Z,99.90
2019-06-07T20:44:38.326Z,99.90
2019-06-07T20:47:08.544Z,99.90
2019-06-07T20:49:38.770Z,99.90
2019-06-07T20:52:09.165Z,99.90
2019-06-07T20:54:39.449Z,99.90
2019-06-07T20:57:09.811Z,99.90
2019-06-07T20:59:41.839Z,99.90
2019-06-07T21:02:12.377Z,99.90
2019-06-07T21:04:45.617Z,99.90
2019-06-07T21:07:17.298Z,99.90
2019-06-07T21:09:47.551Z,99.90
2019-06-07T21:12:17.681Z,99.90
2019-06-07T21:14:48.420Z,99.90
2019-06-07T21:17:18.579Z,99.90
2019-06-07T21:19:50.181Z,99.90
2019-06-07T21:22:20.747Z,99.90
2019-06-07T21:24:51.115Z,99.90
2019-06-07T21:27:21.238Z,99.90
2019-06-07T21:29:52.022Z,99.90
2019-06-07T21:32:22.416Z,99.90
2019-06-07T21:34:52.674Z,99.90
2019-06-07T21:37:22.774Z,99.90
2019-06-07T21:39:53.098Z,99.90
2019-06-07T21:42:23.351Z,99.90
2019-06-07T21:44:53.462Z,99.90
2019-06-07T21:47:23.713Z,99.90
2019-06-07T21:49:53.861Z,99.90
2019-06-07T21:52:26.137Z,99.90
2019-06-07T21:54:56.279Z,99.90
2019-06-07T21:57:26.608Z,99.90
2019-06-07T21:59:56.961Z,99.90
2019-06-07T22:02:27.101Z,99.90
2019-06-07T22:04:57.364Z,99.90
2019-06-07T22:07:27.958Z,99.90
2019-06-07T22:09:58.418Z,99.90
2019-06-07T22:12:28.609Z,99.90
2019-06-07T22:15:32.847Z,99.90
2019-06-07T22:17:50.564Z,99.90
2019-06-07T22:20:20.927Z,99.90
2019-06-07T22:22:52.750Z,99.90
2019-06-07T22:25:22.962Z,99.90
2019-06-07T22:27:56.247Z,99.90
2019-06-07T22:30:26.360Z,99.90
2019-06-07T22:32:56.530Z,99.90
2019-06-07T22:35:26.591Z,99.90
2019-06-07T22:37:56.707Z,99.90
2019-06-07T22:40:26.958Z,99.90
2019-06-07T22:42:57.093Z,99.90
2019-06-07T22:45:46.657Z,99.90
2019-06-07T22:48:18.697Z,99.90
2019-06-07T22:50:48.976Z,99.90
2019-06-07T22:53:19.203Z,99.90
2019-06-07T22:56:13.922Z,99.90
2019-06-07T22:58:44.525Z,99.90
2019-06-07T23:01:14.721Z,99.90
2019-06-07T23:03:46.663Z,99.90
2019-06-07T23:06:16.827Z,99.90
2019-06-07T23:08:47.355Z,99.90
2019-06-07T23:11:17.453Z,99.90
2019-06-07T23:13:49.865Z,99.90
2019-06-07T23:16:20.054Z,99.90
2019-06-07T23:18:50.249Z,99.90
2019-06-07T23:21:20.728Z,99.90
2019-06-07T23:23:50.817Z,99.90
2019-06-07T23:26:20.881Z,99.90
2019-06-07T23:28:51.781Z,99.90
2019-06-07T23:31:32.193Z,99.90
2019-06-07T23:34:02.663Z,99.90
2019-06-07T23:36:33.321Z,99.90
2019-06-07T23:39:07.971Z,99.90
2019-06-07T23:41:38.121Z,99.90
2019-06-07T23:44:08.209Z,99.90
2019-06-07T23:46:39.952Z,99.90
2019-06-07T23:49:11.887Z,99.90
2019-06-07T23:51:45.232Z,99.90
2019-06-07T23:54:15.692Z,99.90
2019-06-07T23:56:47.276Z,99.90
2019-06-07T23:59:18.125Z,99.90
